Time;durP1;ratioP1;P1;durP2;ratioP2;P2;SDS_P1;SDS_P2;PMS_P1;PMS_P2;Temp;Humidity;BMP_temperature;BMP_pressure;BME280_temperature;BME280_humidity;BME280_pressure;Samples;Min_cycle;Max_cycle;Signal;HPM_P1;HPM_P2
2023/07/09 00:01:50;;;;;;;9.93;7.72;;;24.50;92.80;;;;;;5000491;28;20060;-87
2023/07/09 00:04:18;;;;;;;9.88;8.20;;;24.50;92.80;;;;;;5016855;28;20071;-87
2023/07/09 00:06:44;;;;;;;8.93;7.60;;;24.50;92.90;;;;;;5016535;28;20021;-86
2023/07/09 00:09:20;;;;;;;10.82;7.25;;;24.50;93.00;;;;;;5016814;28;20026;-87
2023/07/09 00:11:47;;;;;;;10.43;8.23;;;24.50;93.10;;;;;;5016488;28;20021;-86
2023/07/09 00:14:14;;;;;;;10.07;7.55;;;24.40;93.20;;;;;;5000080;28;20380;-87
2023/07/09 00:16:41;;;;;;;10.40;7.90;;;24.40;93.30;;;;;;5016906;28;20478;-86
2023/07/09 00:19:23;;;;;;;10.65;7.70;;;24.40;93.40;;;;;;5016374;28;20071;-86
2023/07/09 00:21:53;;;;;;;10.32;8.32;;;24.40;93.50;;;;;;5034284;28;20029;-87
2023/07/09 00:24:19;;;;;;;8.25;7.35;;;24.40;93.50;;;;;;5016868;28;20377;-86
2023/07/09 00:26:46;;;;;;;8.52;7.32;;;24.30;93.60;;;;;;5016446;28;20025;-86
2023/07/09 00:29:12;;;;;;;10.63;7.80;;;24.30;93.70;;;;;;5033876;28;20068;-86
2023/07/09 00:31:40;;;;;;;9.25;8.13;;;24.30;93.70;;;;;;5016555;28;20029;-86
2023/07/09 00:34:13;;;;;;;8.65;7.55;;;24.20;93.80;;;;;;5016417;28;20048;-86
2023/07/09 00:36:43;;;;;;;10.25;8.02;;;24.20;93.80;;;;;;5034203;28;20021;-86
2023/07/09 00:39:20;;;;;;;9.75;7.85;;;24.20;93.90;;;;;;5016359;28;20048;-87
2023/07/09 00:41:46;;;;;;;8.90;7.35;;;24.20;93.90;;;;;;5000490;28;20037;-86
2023/07/09 00:44:33;;;;;;;11.40;7.85;;;24.20;93.90;;;;;;5016058;28;20414;-86
2023/07/09 00:47:00;;;;;;;9.55;8.30;;;24.10;93.90;;;;;;5000035;28;20021;-87
2023/07/09 00:49:46;;;;;;;9.35;8.25;;;24.10;94.00;;;;;;5015999;28;20091;-86
2023/07/09 00:52:35;;;;;;;10.48;7.68;;;24.10;94.10;;;;;;5034039;28;20030;-86
2023/07/09 00:55:07;;;;;;;11.52;7.80;;;24.10;94.10;;;;;;5034013;28;20464;-86
2023/07/09 00:57:37;;;;;;;9.00;7.55;;;24.00;94.10;;;;;;5016366;28;20376;-87
2023/07/09 01:00:09;;;;;;;8.77;7.50;;;24.00;94.20;;;;;;5016510;28;20029;-87
2023/07/09 01:02:39;;;;;;;9.73;7.80;;;24.00;94.30;;;;;;5033994;28;20053;-86
2023/07/09 01:05:06;;;;;;;9.80;7.47;;;23.90;94.30;;;;;;5002429;28;20026;-86
2023/07/09 01:07:32;;;;;;;10.23;7.65;;;24.00;94.40;;;;;;5003938;28;20082;-87
2023/07/09 01:09:58;;;;;;;10.15;8.23;;;23.90;94.40;;;;;;5037951;28;20021;-86
2023/07/09 01:12:24;;;;;;;9.13;8.05;;;23.90;94.40;;;;;;5020113;28;20039;-87
2023/07/09 01:14:54;;;;;;;8.82;7.93;;;23.90;94.50;;;;;;5020085;28;20441;-86
2023/07/09 01:17:23;;;;;;;8.77;7.43;;;23.90;94.50;;;;;;5020482;28;20028;-86
2023/07/09 01:19:50;;;;;;;11.52;8.00;;;23.90;94.50;;;;;;5038402;28;20022;-86
2023/07/09 01:22:18;;;;;;;10.63;8.02;;;23.90;94.60;;;;;;5004055;28;20026;-87
2023/07/09 01:24:47;;;;;;;9.13;7.85;;;23.80;94.70;;;;;;5034240;28;20032;-87
2023/07/09 01:27:13;;;;;;;9.77;7.30;;;23.80;94.70;;;;;;5044102;28;20030;-86
2023/07/09 01:29:41;;;;;;;10.40;7.65;;;23.80;94.80;;;;;;5044065;28;20056;-84
2023/07/09 01:32:09;;;;;;;8.98;7.78;;;23.80;94.80;;;;;;5061072;28;20046;-84
2023/07/09 01:34:35;;;;;;;9.07;7.47;;;23.80;94.90;;;;;;5016484;28;20029;-87
2023/07/09 01:37:00;;;;;;;10.63;8.05;;;23.80;94.90;;;;;;5021906;28;20484;-86
2023/07/09 01:39:28;;;;;;;9.55;7.78;;;23.80;94.90;;;;;;5003651;28;20427;-87
2023/07/09 01:41:54;;;;;;;9.50;7.30;;;23.70;94.90;;;;;;5037839;28;20112;-87
2023/07/09 01:44:20;;;;;;;10.10;7.80;;;23.70;95.00;;;;;;5019660;28;20075;-86
2023/07/09 01:46:46;;;;;;;9.93;7.32;;;23.70;95.00;;;;;;5019265;28;20033;-86
2023/07/09 01:49:12;;;;;;;9.00;7.90;;;23.70;95.10;;;;;;5019285;28;20018;-87
2023/07/09 01:51:38;;;;;;;10.90;8.07;;;23.60;95.10;;;;;;5019424;28;20017;-87
2023/07/09 01:54:04;;;;;;;9.73;7.93;;;23.70;95.20;;;;;;5019085;28;20108;-87
2023/07/09 01:56:30;;;;;;;11.52;8.45;;;23.70;95.20;;;;;;5003324;28;20043;-88
2023/07/09 01:59:01;;;;;;;10.73;7.90;;;23.60;95.30;;;;;;5019251;28;20022;-86
2023/07/09 02:01:30;;;;;;;;;;;23.60;95.30;;;;;;5037645;28;20049;-87
2023/07/09 02:03:55;;;;;;;9.68;8.43;;;23.50;95.30;;;;;;5037580;28;19905;-87
2023/07/09 02:06:24;;;;;;;12.68;9.05;;;23.50;95.40;;;;;;5002840;28;20563;-87
2023/07/09 02:08:50;;;;;;;11.00;8.80;;;23.50;95.50;;;;;;5019157;28;20061;-87
2023/07/09 02:11:16;;;;;;;12.93;9.70;;;23.50;95.50;;;;;;5018854;28;20033;-87
2023/07/09 02:13:42;;;;;;;12.65;8.80;;;23.40;95.60;;;;;;5018511;28;20037;-86
2023/07/09 02:16:07;;;;;;;10.65;8.68;;;23.40;95.70;;;;;;5002021;28;20036;-87
2023/07/09 02:18:34;;;;;;;11.98;8.48;;;23.40;95.80;;;;;;5019129;28;20509;-87
2023/07/09 02:21:00;;;;;;;12.98;8.77;;;23.40;95.80;;;;;;5002884;28;20026;-87
2023/07/09 02:23:27;;;;;;;10.10;9.00;;;23.40;95.90;;;;;;5018857;28;20033;-86
2023/07/09 02:25:53;;;;;;;9.13;8.05;;;23.30;95.90;;;;;;5019315;28;20021;-88
2023/07/09 02:28:18;;;;;;;12.07;9.13;;;23.30;95.90;;;;;;5019166;28;20037;-87
2023/07/09 02:30:45;;;;;;;11.43;8.80;;;23.30;96.00;;;;;;5002497;28;20041;-88
2023/07/09 02:33:10;;;;;;;13.98;8.57;;;23.30;96.00;;;;;;5001586;28;20040;-87
2023/07/09 02:35:36;;;;;;;10.38;7.90;;;23.20;96.10;;;;;;5001406;28;20029;-87
2023/07/09 02:38:03;;;;;;;9.82;8.27;;;23.20;96.10;;;;;;5018624;28;20026;-87
2023/07/09 02:40:28;;;;;;;9.55;8.30;;;23.20;96.20;;;;;;5018350;28;20029;-87
2023/07/09 02:42:54;;;;;;;9.85;7.93;;;23.20;96.20;;;;;;5002129;28;20570;-87
2023/07/09 02:45:21;;;;;;;10.80;8.15;;;23.10;96.20;;;;;;5018606;28;20124;-87
2023/07/09 02:47:46;;;;;;;10.85;7.68;;;23.20;96.30;;;;;;5018492;28;20095;-87
2023/07/09 02:50:12;;;;;;;9.18;7.50;;;23.10;96.30;;;;;;5036380;28;20449;-87
2023/07/09 02:52:39;;;;;;;9.77;7.85;;;23.10;96.30;;;;;;5018386;28;20037;-86
2023/07/09 02:55:05;;;;;;;9.95;8.07;;;23.10;96.30;;;;;;5018869;28;20037;-86
2023/07/09 02:57:30;;;;;;;9.63;8.13;;;23.10;96.40;;;;;;5002151;28;20030;-86
2023/07/09 02:59:56;;;;;;;10.43;8.57;;;23.10;96.40;;;;;;5018189;28;20464;-87
2023/07/09 03:02:22;;;;;;;9.82;8.18;;;23.00;96.50;;;;;;5001903;28;20092;-86
2023/07/09 03:04:47;;;;;;;10.13;7.95;;;23.00;96.50;;;;;;5018322;28;20457;-86
2023/07/09 03:07:13;;;;;;;9.45;8.45;;;23.00;96.50;;;;;;5002068;28;20017;-86
2023/07/09 03:09:39;;;;;;;9.50;7.95;;;23.00;96.50;;;;;;5001825;28;20369;-86
2023/07/09 03:12:05;;;;;;;9.70;7.53;;;22.90;96.50;;;;;;5035921;28;20038;-87
2023/07/09 03:14:30;;;;;;;8.50;7.50;;;22.90;96.60;;;;;;5001697;28;20029;-88
2023/07/09 03:16:56;;;;;;;9.45;7.22;;;22.90;96.70;;;;;;5001935;28;20035;-86
2023/07/09 03:19:22;;;;;;;8.63;7.25;;;22.90;96.70;;;;;;5017977;28;20029;-87
2023/07/09 03:21:47;;;;;;;10.60;8.30;;;22.90;96.70;;;;;;5018302;28;20531;-87
2023/07/09 03:24:18;;;;;;;10.85;7.63;;;22.90;96.70;;;;;;5002240;28;20029;-87
2023/07/09 03:26:45;;;;;;;9.38;7.45;;;22.90;96.80;;;;;;5003019;28;20025;-88
2023/07/09 03:29:11;;;;;;;8.82;7.55;;;22.80;96.80;;;;;;5054596;28;20033;-87
2023/07/09 03:31:37;;;;;;;9.05;7.50;;;22.80;96.90;;;;;;5025416;28;20085;-87
2023/07/09 03:34:03;;;;;;;8.95;7.93;;;22.80;96.90;;;;;;5058920;28;20014;-85
2023/07/09 03:36:29;;;;;;;10.20;8.35;;;22.80;96.90;;;;;;5025594;28;20048;-85
2023/07/09 03:38:55;;;;;;;9.98;8.32;;;22.80;97.00;;;;;;5025050;28;20052;-85
2023/07/09 03:41:21;;;;;;;8.10;7.30;;;22.80;97.00;;;;;;5042480;28;20025;-87
2023/07/09 03:43:49;;;;;;;8.68;7.75;;;22.80;97.00;;;;;;5017694;28;20044;-87
2023/07/09 03:46:15;;;;;;;9.75;7.50;;;22.80;97.10;;;;;;5002008;28;20064;-88
2023/07/09 03:48:41;;;;;;;8.15;7.30;;;22.80;97.10;;;;;;5001118;28;20456;-87
2023/07/09 03:51:06;;;;;;;7.72;6.95;;;22.70;97.10;;;;;;5017875;28;20464;-87
2023/07/09 03:53:32;;;;;;;9.95;8.82;;;22.70;97.10;;;;;;5001093;28;20479;-87
2023/07/09 03:55:59;;;;;;;9.52;8.52;;;22.70;97.10;;;;;;5001059;28;20021;-87
2023/07/09 03:58:25;;;;;;;10.77;8.95;;;22.70;97.10;;;;;;5017545;28;20025;-87
2023/07/09 04:00:52;;;;;;;10.55;8.98;;;22.80;97.20;;;;;;5019203;28;20383;-87
2023/07/09 04:03:17;;;;;;;10.18;8.68;;;22.80;97.20;;;;;;5018597;28;20081;-86
2023/07/09 04:05:43;;;;;;;10.30;8.40;;;22.80;97.20;;;;;;5019583;28;20518;-87
2023/07/09 04:08:09;;;;;;;9.93;7.93;;;22.80;97.10;;;;;;5034725;28;20029;-87
2023/07/09 04:10:34;;;;;;;10.23;8.23;;;22.90;97.20;;;;;;5000538;28;20060;-87
2023/07/09 04:13:00;;;;;;;9.48;7.93;;;22.90;97.10;;;;;;5000885;28;20057;-87
2023/07/09 04:15:27;;;;;;;10.57;8.50;;;22.90;97.10;;;;;;5017201;28;20018;-87
2023/07/09 04:17:52;;;;;;;11.27;9.38;;;22.90;97.10;;;;;;5000420;28;20439;-87
2023/07/09 04:20:18;;;;;;;13.90;10.07;;;22.90;97.10;;;;;;5017035;28;20026;-87
2023/07/09 04:22:44;;;;;;;11.20;9.20;;;23.00;97.10;;;;;;5034018;28;20029;-87
2023/07/09 04:25:11;;;;;;;9.70;8.32;;;23.00;97.10;;;;;;5000276;28;20487;-86
2023/07/09 04:27:38;;;;;;;12.60;9.07;;;23.10;97.10;;;;;;5034319;28;20043;-86
2023/07/09 04:30:05;;;;;;;11.05;9.48;;;23.10;97.00;;;;;;5000406;28;20018;-87
2023/07/09 04:32:31;;;;;;;10.75;8.13;;;23.10;97.00;;;;;;5032976;28;20041;-87
2023/07/09 04:34:56;;;;;;;11.50;8.57;;;23.10;97.10;;;;;;5629727;22;20860;-90
2023/07/09 04:37:24;;;;;;;11.90;8.63;;;23.10;97.20;;;;;;5048274;28;20037;-91
2023/07/09 04:39:53;;;;;;;9.55;8.27;;;23.10;97.20;;;;;;5039930;28;20044;-93
2023/07/09 04:42:28;;;;;;;10.27;9.18;;;23.10;97.30;;;;;;5040243;28;20167;-91
2023/07/09 04:44:54;;;;;;;9.73;8.45;;;23.10;97.40;;;;;;5038517;28;20025;-91
2023/07/09 04:47:22;;;;;;;11.68;9.15;;;23.20;97.40;;;;;;5056096;28;20075;-90
2023/07/09 04:49:51;;;;;;;10.65;9.32;;;23.20;97.40;;;;;;5055895;28;20406;-92
2023/07/09 04:52:16;;;;;;;11.77;9.35;;;23.20;97.40;;;;;;5038063;28;20032;-92
2023/07/09 04:54:45;;;;;;;12.70;8.63;;;23.20;97.40;;;;;;5037820;28;20087;-93
2023/07/09 04:57:12;;;;;;;11.18;9.27;;;23.20;97.40;;;;;;5037854;28;20027;-90
2023/07/09 04:59:41;;;;;;;12.82;9.07;;;23.20;97.40;;;;;;5037744;28;20033;-92
2023/07/09 05:02:07;;;;;;;10.52;9.35;;;23.20;97.40;;;;;;5037824;28;20057;-91
2023/07/09 05:04:35;;;;;;;9.55;8.55;;;23.30;97.30;;;;;;5054830;28;20025;-91
2023/07/09 05:07:05;;;;;;;11.18;9.15;;;23.30;97.30;;;;;;5021308;28;20064;-92
2023/07/09 05:09:32;;;;;;;;;;;23.30;97.20;;;;;;5037929;28;20017;-91
2023/07/09 05:11:58;;;;;;;10.23;9.00;;;23.40;97.10;;;;;;5037410;28;19920;-91
2023/07/09 05:14:27;;;;;;;10.95;8.98;;;23.30;97.00;;;;;;5037474;28;20029;-91
2023/07/09 05:16:53;;;;;;;10.55;8.95;;;23.40;97.00;;;;;;5037322;28;20021;-91
2023/07/09 05:19:19;;;;;;;10.52;8.32;;;23.40;97.00;;;;;;5020963;28;20124;-92
2023/07/09 05:21:45;;;;;;;10.73;8.70;;;23.50;96.90;;;;;;5037214;28;20017;-91
2023/07/09 05:24:11;;;;;;;9.02;7.90;;;23.50;96.80;;;;;;5021014;28;20128;-91
2023/07/09 05:26:40;;;;;;;11.98;9.32;;;23.50;96.80;;;;;;5037140;28;20486;-93
2023/07/09 05:29:06;;;;;;;10.23;8.20;;;23.50;96.80;;;;;;5037252;28;20080;-92
2023/07/09 05:31:54;;;;;;;12.90;9.02;;;23.60;96.70;;;;;;5038004;28;20065;-92
2023/07/09 05:34:19;;;;;;;11.02;8.30;;;23.60;96.70;;;;;;5054066;28;20107;-91
2023/07/09 05:36:47;;;;;;;10.70;8.57;;;23.60;96.70;;;;;;5036482;28;20490;-88
2023/07/09 05:39:13;;;;;;;11.63;9.13;;;23.60;96.60;;;;;;5054804;28;20036;-92
2023/07/09 05:41:39;;;;;;;12.20;9.70;;;23.70;96.60;;;;;;5037369;28;20025;-91
2023/07/09 05:44:05;;;;;;;10.82;9.20;;;23.70;96.50;;;;;;5036940;28;20032;-92
2023/07/09 05:46:35;;;;;;;10.90;9.35;;;23.80;96.50;;;;;;5036943;28;20460;-91
2023/07/09 05:49:01;;;;;;;12.15;8.52;;;23.80;96.30;;;;;;5037321;28;20051;-91
2023/07/09 05:51:27;;;;;;;10.38;8.25;;;23.80;96.30;;;;;;5038784;28;20044;-91
2023/07/09 05:53:53;;;;;;;10.85;8.63;;;23.90;96.20;;;;;;5024660;28;20068;-93
2023/07/09 05:56:19;;;;;;;10.23;9.02;;;23.90;96.10;;;;;;5041709;28;20388;-92
2023/07/09 05:58:45;;;;;;;13.93;9.85;;;23.90;96.00;;;;;;5042332;28;20021;-92
2023/07/09 06:01:20;;;;;;;11.95;9.00;;;24.00;95.90;;;;;;5043142;28;20365;-92
2023/07/09 06:03:46;;;;;;;10.55;8.57;;;24.10;95.90;;;;;;5026944;28;20033;-92
2023/07/09 06:06:12;;;;;;;11.10;8.63;;;24.00;95.80;;;;;;5026833;28;20064;-91
2023/07/09 06:08:38;;;;;;;12.88;8.05;;;24.10;95.70;;;;;;5041325;28;20032;-91
2023/07/09 06:11:04;;;;;;;10.38;9.30;;;24.10;95.70;;;;;;5020493;28;20033;-92
2023/07/09 06:13:31;;;;;;;10.85;9.68;;;24.10;95.60;;;;;;5052691;28;20032;-92
2023/07/09 06:15:58;;;;;;;10.60;8.90;;;24.30;95.60;;;;;;5037711;28;20043;-92
2023/07/09 06:18:28;;;;;;;12.23;9.02;;;24.30;95.50;;;;;;5046444;28;20025;-90
2023/07/09 06:20:57;;;;;;;9.55;7.82;;;24.30;95.50;;;;;;5055082;28;20018;-91
2023/07/09 06:23:23;;;;;;;11.85;9.38;;;24.40;95.40;;;;;;5029757;28;20469;-90
2023/07/09 06:25:52;;;;;;;10.30;7.80;;;24.40;95.40;;;;;;5024284;28;20087;-91
2023/07/09 06:28:21;;;;;;;11.98;8.95;;;24.40;95.40;;;;;;5041613;28;20017;-91
2023/07/09 06:30:47;;;;;;;9.38;7.72;;;24.50;95.40;;;;;;5043396;28;20021;-92
2023/07/09 06:33:15;;;;;;;12.00;8.75;;;24.50;95.40;;;;;;5023792;28;20034;-90
2023/07/09 06:36:08;;;;;;;11.60;9.43;;;24.60;95.40;;;;;;5040299;28;20045;-88
2023/07/09 06:38:34;;;;;;;11.02;8.40;;;24.70;95.40;;;;;;5047962;28;20064;-91
2023/07/09 06:41:02;;;;;;;10.88;8.65;;;24.70;95.30;;;;;;5049017;28;20018;-90
2023/07/09 06:43:31;;;;;;;10.00;7.88;;;24.80;95.30;;;;;;5057538;28;20032;-89
2023/07/09 06:45:59;;;;;;;10.75;8.13;;;24.80;95.30;;;;;;5055640;28;20076;-92
2023/07/09 06:48:31;;;;;;;10.90;8.00;;;24.90;95.20;;;;;;5025761;28;20037;-92
2023/07/09 06:50:58;;;;;;;9.10;7.22;;;24.90;95.30;;;;;;5028663;28;20028;-92
2023/07/09 06:53:25;;;;;;;12.15;7.13;;;25.00;95.30;;;;;;5027602;28;20111;-92
2023/07/09 06:55:54;;;;;;;12.40;8.38;;;24.90;95.30;;;;;;5051873;28;20021;-92
2023/07/09 06:58:25;;;;;;;10.27;8.15;;;25.10;95.40;;;;;;5020072;28;20116;-92
2023/07/09 07:00:51;;;;;;;;;;;25.10;95.40;;;;;;5036105;28;20088;-92
2023/07/09 07:03:17;;;;;;;10.80;7.60;;;25.20;95.30;;;;;;5041441;28;20332;-92
2023/07/09 07:05:44;;;;;;;11.27;8.23;;;25.20;95.30;;;;;;5058515;28;20115;-93
2023/07/09 07:08:10;;;;;;;13.85;8.95;;;25.30;95.20;;;;;;5051655;28;20383;-92
2023/07/09 07:10:36;;;;;;;9.77;7.53;;;25.40;95.10;;;;;;5034114;28;20021;-93
2023/07/09 07:13:02;;;;;;;8.30;7.40;;;25.50;95.00;;;;;;5043949;28;20029;-93
2023/07/09 07:15:30;;;;;;;11.85;8.02;;;25.50;95.00;;;;;;5062976;28;20017;-93
2023/07/09 07:17:58;;;;;;;10.38;7.57;;;25.60;95.00;;;;;;5031547;28;20085;-90
2023/07/09 07:20:24;;;;;;;10.75;7.95;;;25.70;94.90;;;;;;5029515;28;20034;-92
2023/07/09 07:22:50;;;;;;;9.68;7.25;;;25.80;94.80;;;;;;5050487;28;20059;-93
2023/07/09 07:25:16;;;;;;;9.73;7.80;;;25.90;94.80;;;;;;5071753;28;20080;-93
2023/07/09 07:27:42;;;;;;;9.20;7.43;;;26.00;94.70;;;;;;5040802;28;20025;-92
2023/07/09 07:30:12;;;;;;;9.23;7.07;;;26.00;94.60;;;;;;5042297;28;20033;-94
2023/07/09 07:32:44;;;;;;;10.98;7.75;;;26.10;94.40;;;;;;5057971;28;20065;-93
2023/07/09 07:35:10;;;;;;;8.23;6.68;;;26.20;94.30;;;;;;5058297;28;20033;-91
2023/07/09 07:37:35;;;;;;;10.13;7.18;;;26.30;94.20;;;;;;5044640;28;20036;-92
2023/07/09 07:40:01;;;;;;;9.63;7.30;;;26.40;94.00;;;;;;5055203;28;20037;-90
2023/07/09 07:42:27;;;;;;;8.68;7.07;;;26.40;93.80;;;;;;5049643;28;20052;-93
2023/07/09 07:44:55;;;;;;;8.60;6.53;;;26.50;93.70;;;;;;5054485;28;20028;-93
2023/07/09 07:47:21;;;;;;;9.10;7.20;;;26.60;93.60;;;;;;5036869;28;20025;-93
2023/07/09 07:49:47;;;;;;;7.15;6.40;;;26.70;93.50;;;;;;5053844;28;20036;-93
2023/07/09 07:52:13;;;;;;;8.07;6.63;;;26.80;93.40;;;;;;5073482;28;20025;-93
2023/07/09 07:54:46;;;;;;;10.05;6.93;;;26.80;93.30;;;;;;5039781;28;20113;-93
2023/07/09 07:57:15;;;;;;;8.07;6.22;;;26.90;93.20;;;;;;5057555;28;20018;-91
2023/07/09 07:59:41;;;;;;;8.63;6.40;;;27.00;93.20;;;;;;5057186;28;20022;-92
2023/07/09 08:02:11;;;;;;;9.43;6.10;;;27.10;93.20;;;;;;5056191;28;20032;-90
2023/07/09 08:04:38;;;;;;;7.43;6.20;;;27.10;93.10;;;;;;5056436;28;20025;-93
2023/07/09 08:07:04;;;;;;;7.57;6.78;;;27.20;93.10;;;;;;5038608;28;20025;-89
2023/07/09 08:09:32;;;;;;;9.90;7.22;;;27.20;92.90;;;;;;5058702;28;20017;-91
2023/07/09 08:12:05;;;;;;;8.35;6.95;;;27.30;92.80;;;;;;5058230;28;20052;-91
2023/07/09 08:14:30;;;;;;;8.30;6.38;;;27.30;92.90;;;;;;5060898;28;20025;-89
2023/07/09 08:16:56;;;;;;;8.63;6.97;;;27.40;93.00;;;;;;5050781;28;20040;-92
2023/07/09 08:19:22;;;;;;;9.77;6.75;;;27.50;93.00;;;;;;5054930;28;20028;-93
2023/07/09 08:21:50;;;;;;;7.72;6.65;;;27.60;92.90;;;;;;5055494;28;20006;-93
2023/07/09 08:24:16;;;;;;;8.90;7.03;;;27.60;92.80;;;;;;5037530;28;20040;-89
2023/07/09 08:26:42;;;;;;;8.18;6.78;;;27.70;92.70;;;;;;5037476;28;20025;-93
2023/07/09 08:29:07;;;;;;;8.63;6.72;;;27.80;92.50;;;;;;5041190;28;20083;-89
2023/07/09 08:31:33;;;;;;;9.52;6.35;;;27.80;92.40;;;;;;5034717;28;20059;-89
2023/07/09 08:34:01;;;;;;;9.43;5.95;;;27.90;92.50;;;;;;5050579;28;20080;-90
2023/07/09 08:36:27;;;;;;;8.80;6.90;;;28.00;92.50;;;;;;5044597;28;20045;-91
2023/07/09 08:38:53;;;;;;;9.15;6.68;;;28.00;92.40;;;;;;4993558;28;20033;-91
2023/07/09 08:41:42;;;;;;;7.70;6.32;;;28.10;92.30;;;;;;5034376;28;20091;-90
2023/07/09 08:44:36;;;;;;;8.10;5.65;;;28.10;92.30;;;;;;5046350;28;20055;-90
2023/07/09 08:47:18;;;;;;;7.00;6.13;;;28.20;92.30;;;;;;5052727;28;20014;-90
2023/07/09 08:50:00;;;;;;;8.18;6.30;;;28.20;92.30;;;;;;5052933;28;20028;-90
2023/07/09 08:52:40;;;;;;;8.73;6.47;;;28.20;92.40;;;;;;5055856;28;20422;-90
2023/07/09 08:55:41;;;;;;;7.85;6.47;;;28.30;92.30;;;;;;5049893;28;20021;-94
2023/07/09 08:58:21;;;;;;;6.72;6.03;;;28.40;92.20;;;;;;5034734;28;20034;-91
2023/07/09 09:01:06;;;;;;;6.80;5.97;;;28.50;92.30;;;;;;5005593;28;20038;-92
2023/07/09 09:03:47;;;;;;;6.93;5.75;;;28.50;92.20;;;;;;5035270;28;20022;-91
2023/07/09 09:06:25;;;;;;;7.68;6.07;;;28.60;92.20;;;;;;5016065;28;20033;-92
2023/07/09 09:09:15;;;;;;;8.25;5.93;;;28.60;92.20;;;;;;5000140;28;20026;-91
2023/07/09 09:11:51;;;;;;;7.45;6.10;;;28.70;92.20;;;;;;5028615;28;20112;-91
2023/07/09 09:14:39;;;;;;;6.80;5.70;;;28.80;92.10;;;;;;5034474;28;20029;-89
2023/07/09 09:17:14;;;;;;;8.43;5.75;;;28.80;91.90;;;;;;5033875;28;20066;-91
2023/07/09 09:20:04;;;;;;;8.05;6.25;;;28.90;91.80;;;;;;5034075;28;20085;-91
2023/07/09 09:22:47;;;;;;;6.63;5.93;;;29.00;91.80;;;;;;5034590;28;20037;-92
2023/07/09 09:25:28;;;;;;;7.82;5.40;;;29.10;91.90;;;;;;5035839;28;20018;-91
2023/07/09 09:27:56;;;;;;;8.13;5.55;;;29.10;91.80;;;;;;5033608;28;20164;-92
2023/07/09 09:30:25;;;;;;;7.30;5.47;;;29.20;91.70;;;;;;5023141;28;20112;-92
2023/07/09 09:32:59;;;;;;;9.20;6.17;;;29.20;91.60;;;;;;5035031;28;20025;-91
2023/07/09 09:35:34;;;;;;;6.32;5.68;;;29.30;91.40;;;;;;5019918;28;20480;-89
2023/07/09 09:38:01;;;;;;;8.93;6.03;;;29.40;91.10;;;;;;5021550;28;20057;-91
2023/07/09 09:40:33;;;;;;;7.88;5.60;;;29.40;91.00;;;;;;5020682;28;20441;-91
2023/07/09 09:43:00;;;;;;;6.53;5.72;;;29.50;91.00;;;;;;5020918;28;20041;-90
2023/07/09 09:45:38;;;;;;;8.07;6.07;;;29.60;90.60;;;;;;5042672;28;20048;-90
2023/07/09 09:48:14;;;;;;;9.18;5.75;;;29.60;90.70;;;;;;5042591;28;20083;-93
2023/07/09 09:50:44;;;;;;;6.20;4.68;;;29.70;90.60;;;;;;5040351;28;20025;-92
2023/07/09 09:53:21;;;;;;;6.70;5.15;;;29.70;90.50;;;;;;5040161;28;20487;-92
2023/07/09 09:55:48;;;;;;;6.75;5.38;;;29.80;90.20;;;;;;5058373;28;20043;-93
2023/07/09 09:58:18;;;;;;;5.88;5.10;;;29.90;90.20;;;;;;5008059;28;20059;-92
2023/07/09 10:00:53;;;;;;;6.90;5.10;;;29.90;89.40;;;;;;5040518;28;20047;-92
2023/07/09 10:03:21;;;;;;;5.13;4.55;;;30.00;89.00;;;;;;5034228;28;20048;-93
2023/07/09 10:06:01;;;;;;;6.95;5.15;;;30.00;89.10;;;;;;5020452;28;20030;-93
2023/07/09 10:08:41;;;;;;;6.82;5.47;;;30.10;89.30;;;;;;5020358;28;20029;-92
2023/07/09 10:11:19;;;;;;;;;;;30.20;89.40;;;;;;5021304;28;20064;-93
2023/07/09 10:13:46;;;;;;;5.68;5.10;;;30.20;89.50;;;;;;5020114;28;19905;-92
2023/07/09 10:16:31;;;;;;;6.43;5.25;;;30.20;89.50;;;;;;5036608;28;20029;-93
2023/07/09 10:19:08;;;;;;;8.75;5.57;;;30.30;89.00;;;;;;5042415;28;20029;-93
2023/07/09 10:21:46;;;;;;;6.18;5.30;;;30.40;89.00;;;;;;5037778;28;20036;-93
2023/07/09 10:24:57;;;;;;;8.10;5.85;;;30.40;89.10;;;;;;5033620;28;20036;-94
2023/07/09 10:27:36;;;;;;;6.18;5.35;;;30.40;89.20;;;;;;5009585;28;20121;-93
2023/07/09 10:30:36;;;;;;;8.88;5.40;;;30.50;88.20;;;;;;5039537;28;20025;-93
2023/07/09 10:33:36;;;;;;;6.38;5.18;;;30.60;88.00;;;;;;5039504;28;20468;-93
2023/07/09 10:36:22;;;;;;;8.85;4.88;;;30.60;88.20;;;;;;5039698;28;20092;-92
2023/07/09 10:39:13;;;;;;;5.43;4.88;;;30.60;87.90;;;;;;5031183;28;20045;-92
2023/07/09 10:41:40;;;;;;;5.68;5.07;;;30.60;88.00;;;;;;5058150;28;20498;-93
2023/07/09 10:44:11;;;;;;;6.13;5.38;;;30.70;86.80;;;;;;5053512;28;20440;-94
2023/07/09 10:46:40;;;;;;;7.43;5.25;;;30.80;86.10;;;;;;5037240;28;20101;-93
2023/07/09 10:49:11;;;;;;;5.80;5.03;;;30.90;85.40;;;;;;5033807;28;20110;-91
2023/07/09 10:51:38;;;;;;;6.38;4.75;;;30.90;85.80;;;;;;5039550;28;20029;-92
2023/07/09 10:54:21;;;;;;;5.68;4.68;;;30.90;86.10;;;;;;5031043;28;20452;-92
2023/07/09 10:56:59;;;;;;;6.78;5.00;;;30.90;86.50;;;;;;5038784;28;20380;-92
2023/07/09 10:59:33;;;;;;;7.63;4.88;;;31.00;86.10;;;;;;5070382;28;20032;-88
2023/07/09 11:02:25;;;;;;;6.15;5.00;;;31.00;86.00;;;;;;5050509;28;20028;-90
2023/07/09 11:04:57;;;;;;;6.50;4.78;;;31.10;85.70;;;;;;5040099;28;20030;-91
2023/07/09 11:07:58;;;;;;;4.82;4.25;;;31.10;86.20;;;;;;5029675;28;20453;-91
2023/07/09 11:10:35;;;;;;;5.10;4.60;;;31.10;86.20;;;;;;5030841;28;20056;-92
2023/07/09 11:13:18;;;;;;;6.25;4.43;;;31.10;86.00;;;;;;5031424;28;20037;-92
2023/07/09 11:15:48;;;;;;;6.05;4.82;;;31.20;86.10;;;;;;5032976;28;20116;-92
2023/07/09 11:18:24;;;;;;;5.43;4.65;;;31.20;85.80;;;;;;5029780;28;20376;-92
2023/07/09 11:21:00;;;;;;;5.45;4.72;;;31.10;84.00;;;;;;5032140;28;20124;-92
2023/07/09 11:23:36;;;;;;;4.78;4.30;;;31.20;84.00;;;;;;5025406;28;20076;-94
2023/07/09 11:26:12;;;;;;;5.82;4.72;;;31.20;84.10;;;;;;5033312;28;20033;-92
2023/07/09 11:28:39;;;;;;;5.57;4.65;;;31.40;83.90;;;;;;5025105;28;20387;-92
2023/07/09 11:31:08;;;;;;;5.32;4.20;;;31.40;83.50;;;;;;5048941;28;20021;-92
2023/07/09 11:33:44;;;;;;;5.53;4.28;;;31.50;83.30;;;;;;5035226;28;20031;-89
2023/07/09 11:36:12;;;;;;;4.82;4.22;;;31.50;82.80;;;;;;5049792;28;20025;-91
2023/07/09 11:38:41;;;;;;;8.02;4.05;;;31.50;82.80;;;;;;5048872;28;20025;-91
2023/07/09 11:41:39;;;;;;;6.88;4.50;;;31.50;82.70;;;;;;5027858;28;20036;-93
2023/07/09 11:44:19;;;;;;;7.80;4.10;;;31.60;82.20;;;;;;5047592;28;20060;-92
2023/07/09 11:47:12;;;;;;;5.35;3.38;;;31.60;82.40;;;;;;5039402;28;20143;-92
2023/07/09 11:49:59;;;;;;;6.90;4.03;;;31.70;82.50;;;;;;5036868;28;20472;-93
2023/07/09 11:52:31;;;;;;;6.32;4.47;;;31.60;82.60;;;;;;5038048;28;20028;-92
2023/07/09 11:54:56;;;;;;;7.82;4.55;;;31.70;82.00;;;;;;5038219;28;20111;-91
2023/07/09 11:57:22;;;;;;;6.07;4.30;;;31.80;81.80;;;;;;5017258;28;20487;-92
2023/07/09 11:59:47;;;;;;;6.10;4.07;;;31.80;80.60;;;;;;5034358;28;20025;-91
2023/07/09 12:02:21;;;;;;;5.78;4.47;;;31.90;80.50;;;;;;5018910;28;20064;-91
2023/07/09 12:04:53;;;;;;;7.88;4.32;;;31.90;80.10;;;;;;5034706;28;20033;-92
2023/07/09 12:07:21;;;;;;;5.63;4.03;;;32.00;79.70;;;;;;5022035;28;20040;-92
2023/07/09 12:09:50;;;;;;;6.65;4.00;;;32.00;80.00;;;;;;5056267;28;20071;-93
2023/07/09 12:12:29;;;;;;;6.72;4.25;;;32.10;80.20;;;;;;5021623;28;20517;-93
2023/07/09 12:14:55;;;;;;;5.78;4.22;;;32.10;80.20;;;;;;5037721;28;20025;-93
2023/07/09 12:17:28;;;;;;;5.13;3.97;;;32.10;80.20;;;;;;5055756;28;20025;-93
2023/07/09 12:19:54;;;;;;;5.13;3.95;;;32.10;80.10;;;;;;5054247;28;20025;-93
2023/07/09 12:22:24;;;;;;;6.68;3.97;;;32.10;80.40;;;;;;5030208;28;20028;-93
2023/07/09 12:24:54;;;;;;;4.78;4.13;;;32.10;80.30;;;;;;5034535;28;20021;-92
2023/07/09 12:27:22;;;;;;;4.95;4.03;;;32.20;80.30;;;;;;5035912;28;20026;-93
2023/07/09 12:29:52;;;;;;;6.40;4.32;;;32.20;80.30;;;;;;5033968;28;20080;-92
2023/07/09 12:32:20;;;;;;;4.88;4.22;;;32.20;80.50;;;;;;5034404;28;20036;-93
2023/07/09 12:34:56;;;;;;;5.07;4.32;;;32.20;80.90;;;;;;5025481;28;20037;-94
2023/07/09 12:37:24;;;;;;;5.25;4.30;;;32.10;81.50;;;;;;5035817;28;20440;-93
2023/07/09 12:39:52;;;;;;;4.93;3.85;;;32.10;81.50;;;;;;5034981;28;20112;-91
2023/07/09 12:42:23;;;;;;;5.13;4.20;;;32.10;81.00;;;;;;5053836;28;20038;-92
2023/07/09 12:44:49;;;;;;;4.88;4.20;;;32.10;80.80;;;;;;5018257;28;20480;-93
2023/07/09 12:47:19;;;;;;;9.10;3.97;;;32.10;80.90;;;;;;5049559;28;20036;-94
2023/07/09 12:49:51;;;;;;;6.25;3.95;;;32.00;80.90;;;;;;5037971;28;20025;-93
2023/07/09 12:52:24;;;;;;;6.97;3.45;;;32.10;81.00;;;;;;5037460;28;20041;-91
2023/07/09 12:55:01;;;;;;;4.18;3.78;;;32.10;80.70;;;;;;5055741;28;20028;-91
2023/07/09 12:57:28;;;;;;;4.80;3.65;;;32.00;80.60;;;;;;5007153;28;20045;-92
2023/07/09 12:59:56;;;;;;;5.20;3.65;;;32.00;80.60;;;;;;5034421;28;20025;-91